sensor_id;sensor_type;location;lat;lon;timestamp;pressure;altitude;pressure_sealevel;temperature
69545;BMP180;56766;52.260;20.746;2023-12-20T00:01:55;99550.40;;;5.60
69545;BMP180;56766;52.260;20.746;2023-12-20T00:04:20;99546.40;;;5.60
69545;BMP180;56766;52.260;20.746;2023-12-20T00:06:47;99549.00;;;5.60
69545;BMP180;56766;52.260;20.746;2023-12-20T00:09:12;99541.80;;;5.60
69545;BMP180;56766;52.260;20.746;2023-12-20T00:11:38;99538.00;;;5.60
69545;BMP180;56766;52.260;20.746;2023-12-20T00:14:04;99535.00;;;5.60
69545;BMP180;56766;52.260;20.746;2023-12-20T00:16:30;99536.60;;;5.60
69545;BMP180;56766;52.260;20.746;2023-12-20T00:18:57;99533.40;;;5.60
69545;BMP180;56766;52.260;20.746;2023-12-20T00:21:23;99529.20;;;5.60
69545;BMP180;56766;52.260;20.746;2023-12-20T00:23:49;99534.00;;;5.60
69545;BMP180;56766;52.260;20.746;2023-12-20T00:26:15;99533.20;;;5.60
69545;BMP180;56766;52.260;20.746;2023-12-20T00:28:41;99533.20;;;5.60
69545;BMP180;56766;52.260;20.746;2023-12-20T00:31:08;99534.40;;;5.60
69545;BMP180;56766;52.260;20.746;2023-12-20T00:33:34;99519.80;;;5.60
69545;BMP180;56766;52.260;20.746;2023-12-20T00:36:00;99524.60;;;5.60
69545;BMP180;56766;52.260;20.746;2023-12-20T00:38:27;99523.60;;;5.60
69545;BMP180;56766;52.260;20.746;2023-12-20T00:40:53;99524.20;;;5.60
69545;BMP180;56766;52.260;20.746;2023-12-20T00:43:19;99520.20;;;5.60
69545;BMP180;56766;52.260;20.746;2023-12-20T00:45:45;99522.20;;;5.60
69545;BMP180;56766;52.260;20.746;2023-12-20T00:48:11;99515.20;;;5.60
69545;BMP180;56766;52.260;20.746;2023-12-20T00:50:37;99521.20;;;5.60
69545;BMP180;56766;52.260;20.746;2023-12-20T00:53:03;99513.80;;;5.60
69545;BMP180;56766;52.260;20.746;2023-12-20T00:55:29;99509.40;;;5.60
69545;BMP180;56766;52.260;20.746;2023-12-20T00:57:55;99506.40;;;5.60
69545;BMP180;56766;52.260;20.746;2023-12-20T01:00:21;99502.00;;;5.60
69545;BMP180;56766;52.260;20.746;2023-12-20T01:02:47;99500.20;;;5.60
69545;BMP180;56766;52.260;20.746;2023-12-20T01:05:15;99498.40;;;5.60
69545;BMP180;56766;52.260;20.746;2023-12-20T01:07:41;99505.80;;;5.60
69545;BMP180;56766;52.260;20.746;2023-12-20T01:10:08;99497.00;;;5.60
69545;BMP180;56766;52.260;20.746;2023-12-20T01:12:36;99500.40;;;5.60
69545;BMP180;56766;52.260;20.746;2023-12-20T01:15:02;99504.60;;;5.60
69545;BMP180;56766;52.260;20.746;2023-12-20T01:17:28;99506.20;;;5.60
69545;BMP180;56766;52.260;20.746;2023-12-20T01:19:54;99503.60;;;5.60
69545;BMP180;56766;52.260;20.746;2023-12-20T01:22:20;99498.60;;;5.60
69545;BMP180;56766;52.260;20.746;2023-12-20T01:24:46;99494.20;;;5.60
69545;BMP180;56766;52.260;20.746;2023-12-20T01:27:12;99498.20;;;5.60
69545;BMP180;56766;52.260;20.746;2023-12-20T01:29:38;99493.40;;;5.60
69545;BMP180;56766;52.260;20.746;2023-12-20T01:32:05;99486.40;;;5.60
69545;BMP180;56766;52.260;20.746;2023-12-20T01:34:31;99482.40;;;5.60
69545;BMP180;56766;52.260;20.746;2023-12-20T01:36:57;99485.80;;;5.60
69545;BMP180;56766;52.260;20.746;2023-12-20T01:39:23;99481.00;;;5.60
69545;BMP180;56766;52.260;20.746;2023-12-20T01:41:49;99477.40;;;5.60
69545;BMP180;56766;52.260;20.746;2023-12-20T01:44:15;99486.60;;;5.60
69545;BMP180;56766;52.260;20.746;2023-12-20T01:46:41;99483.20;;;5.60
69545;BMP180;56766;52.260;20.746;2023-12-20T01:49:07;99476.80;;;5.60
69545;BMP180;56766;52.260;20.746;2023-12-20T01:51:35;99479.40;;;5.60
69545;BMP180;56766;52.260;20.746;2023-12-20T01:54:02;99480.00;;;5.60
69545;BMP180;56766;52.260;20.746;2023-12-20T01:56:32;99471.80;;;5.60
69545;BMP180;56766;52.260;20.746;2023-12-20T01:59:01;99466.40;;;5.60
69545;BMP180;56766;52.260;20.746;2023-12-20T02:01:27;99467.20;;;5.60
69545;BMP180;56766;52.260;20.746;2023-12-20T02:03:56;99468.20;;;5.60
69545;BMP180;56766;52.260;20.746;2023-12-20T02:06:24;99460.40;;;5.60
69545;BMP180;56766;52.260;20.746;2023-12-20T02:08:55;99456.40;;;5.60
69545;BMP180;56766;52.260;20.746;2023-12-20T02:11:21;99453.00;;;5.60
69545;BMP180;56766;52.260;20.746;2023-12-20T02:13:47;99452.60;;;5.60
69545;BMP180;56766;52.260;20.746;2023-12-20T02:16:13;99453.60;;;5.60
69545;BMP180;56766;52.260;20.746;2023-12-20T02:18:39;99451.80;;;5.60
69545;BMP180;56766;52.260;20.746;2023-12-20T02:21:05;99440.80;;;5.60
69545;BMP180;56766;52.260;20.746;2023-12-20T02:23:31;99442.80;;;5.60
69545;BMP180;56766;52.260;20.746;2023-12-20T02:25:57;99441.20;;;5.60
69545;BMP180;56766;52.260;20.746;2023-12-20T02:28:24;99449.00;;;5.60
69545;BMP180;56766;52.260;20.746;2023-12-20T02:30:50;99435.60;;;5.60
69545;BMP180;56766;52.260;20.746;2023-12-20T02:33:16;99423.20;;;5.60
69545;BMP180;56766;52.260;20.746;2023-12-20T02:35:42;99423.00;;;5.60
69545;BMP180;56766;52.260;20.746;2023-12-20T02:38:08;99423.20;;;5.60
69545;BMP180;56766;52.260;20.746;2023-12-20T02:40:34;99419.20;;;5.60
69545;BMP180;56766;52.260;20.746;2023-12-20T02:43:00;99429.00;;;5.60
69545;BMP180;56766;52.260;20.746;2023-12-20T02:45:27;99427.00;;;5.60
69545;BMP180;56766;52.260;20.746;2023-12-20T02:47:53;99424.80;;;5.60
69545;BMP180;56766;52.260;20.746;2023-12-20T02:50:19;99425.80;;;5.60
69545;BMP180;56766;52.260;20.746;2023-12-20T02:52:45;99419.20;;;5.60
69545;BMP180;56766;52.260;20.746;2023-12-20T02:55:11;99413.80;;;5.60
69545;BMP180;56766;52.260;20.746;2023-12-20T02:57:37;99423.20;;;5.60
69545;BMP180;56766;52.260;20.746;2023-12-20T03:00:09;99433.60;;;5.60
69545;BMP180;56766;52.260;20.746;2023-12-20T03:02:36;99424.20;;;5.60
69545;BMP180;56766;52.260;20.746;2023-12-20T03:05:03;99421.00;;;5.60
69545;BMP180;56766;52.260;20.746;2023-12-20T03:07:29;99429.00;;;5.60
69545;BMP180;56766;52.260;20.746;2023-12-20T03:09:55;99424.00;;;5.60
69545;BMP180;56766;52.260;20.746;2023-12-20T03:12:21;99418.60;;;5.60
69545;BMP180;56766;52.260;20.746;2023-12-20T03:14:48;99408.80;;;5.60
69545;BMP180;56766;52.260;20.746;2023-12-20T03:17:14;99405.40;;;5.60
69545;BMP180;56766;52.260;20.746;2023-12-20T03:19:40;99410.40;;;5.60
69545;BMP180;56766;52.260;20.746;2023-12-20T03:22:06;99416.20;;;5.60
69545;BMP180;56766;52.260;20.746;2023-12-20T03:24:32;99411.80;;;5.60
69545;BMP180;56766;52.260;20.746;2023-12-20T03:26:58;99410.00;;;5.60
69545;BMP180;56766;52.260;20.746;2023-12-20T03:29:24;99406.80;;;5.60
69545;BMP180;56766;52.260;20.746;2023-12-20T03:31:50;99393.40;;;5.60
69545;BMP180;56766;52.260;20.746;2023-12-20T03:34:16;99404.20;;;5.60
69545;BMP180;56766;52.260;20.746;2023-12-20T03:36:42;99404.00;;;5.60
69545;BMP180;56766;52.260;20.746;2023-12-20T03:39:08;99394.20;;;5.60
69545;BMP180;56766;52.260;20.746;2023-12-20T03:41:35;99404.60;;;5.60
69545;BMP180;56766;52.260;20.746;2023-12-20T03:44:01;99400.40;;;5.60
69545;BMP180;56766;52.260;20.746;2023-12-20T03:46:27;99391.60;;;5.60
69545;BMP180;56766;52.260;20.746;2023-12-20T03:48:53;99400.20;;;5.60
69545;BMP180;56766;52.260;20.746;2023-12-20T03:51:19;99398.20;;;5.60
69545;BMP180;56766;52.260;20.746;2023-12-20T03:53:45;99404.20;;;5.60
69545;BMP180;56766;52.260;20.746;2023-12-20T03:56:11;99400.60;;;5.60
69545;BMP180;56766;52.260;20.746;2023-12-20T03:58:37;99397.40;;;5.60
69545;BMP180;56766;52.260;20.746;2023-12-20T04:01:03;99393.00;;;5.60
69545;BMP180;56766;52.260;20.746;2023-12-20T04:03:34;99395.40;;;5.60
69545;BMP180;56766;52.260;20.746;2023-12-20T04:06:00;99402.60;;;5.60
69545;BMP180;56766;52.260;20.746;2023-12-20T04:08:26;99400.80;;;5.60
69545;BMP180;56766;52.260;20.746;2023-12-20T04:10:52;99395.60;;;5.60
69545;BMP180;56766;52.260;20.746;2023-12-20T04:13:18;99397.60;;;5.60
69545;BMP180;56766;52.260;20.746;2023-12-20T04:15:44;99399.80;;;5.60
69545;BMP180;56766;52.260;20.746;2023-12-20T04:18:10;99406.00;;;5.60
69545;BMP180;56766;52.260;20.746;2023-12-20T04:20:36;99406.60;;;5.60
69545;BMP180;56766;52.260;20.746;2023-12-20T04:23:02;99402.00;;;5.60
69545;BMP180;56766;52.260;20.746;2023-12-20T04:25:27;99399.00;;;5.60
69545;BMP180;56766;52.260;20.746;2023-12-20T04:27:53;99405.80;;;5.60
69545;BMP180;56766;52.260;20.746;2023-12-20T04:30:19;99402.40;;;5.60
69545;BMP180;56766;52.260;20.746;2023-12-20T04:32:45;99401.20;;;5.60
69545;BMP180;56766;52.260;20.746;2023-12-20T04:35:11;99404.60;;;5.60
69545;BMP180;56766;52.260;20.746;2023-12-20T04:37:37;99401.80;;;5.60
69545;BMP180;56766;52.260;20.746;2023-12-20T04:40:04;99406.40;;;5.60
69545;BMP180;56766;52.260;20.746;2023-12-20T04:42:31;99404.00;;;5.60
69545;BMP180;56766;52.260;20.746;2023-12-20T04:44:57;99398.80;;;5.60
69545;BMP180;56766;52.260;20.746;2023-12-20T04:47:23;99399.80;;;5.60
69545;BMP180;56766;52.260;20.746;2023-12-20T04:49:49;99396.40;;;5.60
69545;BMP180;56766;52.260;20.746;2023-12-20T04:52:15;99403.20;;;5.60
69545;BMP180;56766;52.260;20.746;2023-12-20T04:54:41;99400.00;;;5.60
69545;BMP180;56766;52.260;20.746;2023-12-20T04:57:07;99398.20;;;5.60
69545;BMP180;56766;52.260;20.746;2023-12-20T04:59:33;99399.20;;;5.60
69545;BMP180;56766;52.260;20.746;2023-12-20T05:01:58;99395.40;;;5.60
69545;BMP180;56766;52.260;20.746;2023-12-20T05:04:24;99385.80;;;5.60
69545;BMP180;56766;52.260;20.746;2023-12-20T05:06:50;99381.60;;;5.60
69545;BMP180;56766;52.260;20.746;2023-12-20T05:09:16;99385.40;;;5.60
69545;BMP180;56766;52.260;20.746;2023-12-20T05:11:43;99386.00;;;5.60
69545;BMP180;56766;52.260;20.746;2023-12-20T05:14:09;99379.40;;;5.60
69545;BMP180;56766;52.260;20.746;2023-12-20T05:16:35;99377.60;;;5.60
69545;BMP180;56766;52.260;20.746;2023-12-20T05:19:01;99372.00;;;5.60
69545;BMP180;56766;52.260;20.746;2023-12-20T05:21:32;99375.00;;;5.60
69545;BMP180;56766;52.260;20.746;2023-12-20T05:23:59;99372.20;;;5.60
69545;BMP180;56766;52.260;20.746;2023-12-20T05:26:26;99373.20;;;5.60
69545;BMP180;56766;52.260;20.746;2023-12-20T05:28:52;99375.60;;;5.60
69545;BMP180;56766;52.260;20.746;2023-12-20T05:31:18;99377.60;;;5.60
69545;BMP180;56766;52.260;20.746;2023-12-20T05:33:44;99378.60;;;5.60
69545;BMP180;56766;52.260;20.746;2023-12-20T05:36:10;99375.00;;;5.60
69545;BMP180;56766;52.260;20.746;2023-12-20T05:38:39;99376.40;;;5.60
69545;BMP180;56766;52.260;20.746;2023-12-20T05:41:05;99377.60;;;5.60
69545;BMP180;56766;52.260;20.746;2023-12-20T05:43:31;99376.60;;;5.60
69545;BMP180;56766;52.260;20.746;2023-12-20T05:45:57;99377.00;;;5.58
69545;BMP180;56766;52.260;20.746;2023-12-20T05:48:23;99373.80;;;5.56
69545;BMP180;56766;52.260;20.746;2023-12-20T05:50:49;99370.00;;;5.52
69545;BMP180;56766;52.260;20.746;2023-12-20T05:53:16;99366.20;;;5.54
69545;BMP180;56766;52.260;20.746;2023-12-20T05:55:42;99369.40;;;5.50
69545;BMP180;56766;52.260;20.746;2023-12-20T05:58:08;99370.40;;;5.50
69545;BMP180;56766;52.260;20.746;2023-12-20T06:00:33;99367.80;;;5.50
69545;BMP180;56766;52.260;20.746;2023-12-20T06:02:59;99367.40;;;5.50
69545;BMP180;56766;52.260;20.746;2023-12-20T06:05:25;99363.80;;;5.50
69545;BMP180;56766;52.260;20.746;2023-12-20T06:07:51;99370.20;;;5.50
69545;BMP180;56766;52.260;20.746;2023-12-20T06:10:18;99366.60;;;5.50
69545;BMP180;56766;52.260;20.746;2023-12-20T06:12:44;99367.80;;;5.50
69545;BMP180;56766;52.260;20.746;2023-12-20T06:15:11;99368.00;;;5.50
69545;BMP180;56766;52.260;20.746;2023-12-20T06:17:37;99372.60;;;5.50
69545;BMP180;56766;52.260;20.746;2023-12-20T06:20:04;99370.40;;;5.50
69545;BMP180;56766;52.260;20.746;2023-12-20T06:22:35;99375.20;;;5.50
69545;BMP180;56766;52.260;20.746;2023-12-20T06:25:02;99374.60;;;5.50
69545;BMP180;56766;52.260;20.746;2023-12-20T06:27:28;99378.20;;;5.50
69545;BMP180;56766;52.260;20.746;2023-12-20T06:29:55;99376.40;;;5.50
69545;BMP180;56766;52.260;20.746;2023-12-20T06:32:21;99379.00;;;5.50
69545;BMP180;56766;52.260;20.746;2023-12-20T06:34:49;99379.00;;;5.50
69545;BMP180;56766;52.260;20.746;2023-12-20T06:37:15;99380.20;;;5.50
69545;BMP180;56766;52.260;20.746;2023-12-20T06:39:41;99376.60;;;5.50
69545;BMP180;56766;52.260;20.746;2023-12-20T06:42:07;99381.80;;;5.50
69545;BMP180;56766;52.260;20.746;2023-12-20T06:44:33;99377.60;;;5.50
69545;BMP180;56766;52.260;20.746;2023-12-20T06:47:00;99384.60;;;5.50
69545;BMP180;56766;52.260;20.746;2023-12-20T06:49:26;99384.20;;;5.52
69545;BMP180;56766;52.260;20.746;2023-12-20T06:51:52;99381.40;;;5.50
69545;BMP180;56766;52.260;20.746;2023-12-20T06:54:19;99378.20;;;5.50
69545;BMP180;56766;52.260;20.746;2023-12-20T06:56:45;99378.60;;;5.50
69545;BMP180;56766;52.260;20.746;2023-12-20T06:59:10;99376.60;;;5.52
69545;BMP180;56766;52.260;20.746;2023-12-20T07:01:36;99374.40;;;5.60
69545;BMP180;56766;52.260;20.746;2023-12-20T07:04:03;99376.40;;;5.58
69545;BMP180;56766;52.260;20.746;2023-12-20T07:06:29;99375.80;;;5.60
69545;BMP180;56766;52.260;20.746;2023-12-20T07:08:55;99376.40;;;5.60
69545;BMP180;56766;52.260;20.746;2023-12-20T07:11:21;99372.20;;;5.60
69545;BMP180;56766;52.260;20.746;2023-12-20T07:13:47;99375.20;;;5.60
69545;BMP180;56766;52.260;20.746;2023-12-20T07:16:13;99376.80;;;5.60
69545;BMP180;56766;52.260;20.746;2023-12-20T07:18:39;99375.80;;;5.60
69545;BMP180;56766;52.260;20.746;2023-12-20T07:21:05;99377.00;;;5.60
69545;BMP180;56766;52.260;20.746;2023-12-20T07:23:34;99381.80;;;5.60
69545;BMP180;56766;52.260;20.746;2023-12-20T07:25:59;99381.40;;;5.60
69545;BMP180;56766;52.260;20.746;2023-12-20T07:28:25;99386.60;;;5.60
69545;BMP180;56766;52.260;20.746;2023-12-20T07:30:52;99382.20;;;5.60
69545;BMP180;56766;52.260;20.746;2023-12-20T07:33:18;99382.40;;;5.60
69545;BMP180;56766;52.260;20.746;2023-12-20T07:35:44;99379.20;;;5.60
69545;BMP180;56766;52.260;20.746;2023-12-20T07:38:11;99385.00;;;5.60
69545;BMP180;56766;52.260;20.746;2023-12-20T07:40:38;99378.40;;;5.64
69545;BMP180;56766;52.260;20.746;2023-12-20T07:43:05;99384.00;;;5.68
69545;BMP180;56766;52.260;20.746;2023-12-20T07:45:30;99378.80;;;5.68
69545;BMP180;56766;52.260;20.746;2023-12-20T07:47:56;99379.60;;;5.70
69545;BMP180;56766;52.260;20.746;2023-12-20T07:50:22;99380.00;;;5.70
69545;BMP180;56766;52.260;20.746;2023-12-20T07:52:48;99378.60;;;5.70
69545;BMP180;56766;52.260;20.746;2023-12-20T07:55:14;99378.40;;;5.70
69545;BMP180;56766;52.260;20.746;2023-12-20T07:57:40;99378.00;;;5.70
69545;BMP180;56766;52.260;20.746;2023-12-20T08:00:07;99369.60;;;5.70
69545;BMP180;56766;52.260;20.746;2023-12-20T08:02:33;99373.80;;;5.70
69545;BMP180;56766;52.260;20.746;2023-12-20T08:04:59;99378.20;;;5.70
69545;BMP180;56766;52.260;20.746;2023-12-20T08:07:25;99384.20;;;5.70
69545;BMP180;56766;52.260;20.746;2023-12-20T08:09:51;99376.00;;;5.70
69545;BMP180;56766;52.260;20.746;2023-12-20T08:12:17;99374.40;;;5.72
69545;BMP180;56766;52.260;20.746;2023-12-20T08:14:43;99370.40;;;5.80
69545;BMP180;56766;52.260;20.746;2023-12-20T08:17:09;99378.60;;;5.80
69545;BMP180;56766;52.260;20.746;2023-12-20T08:19:35;99372.40;;;5.80
69545;BMP180;56766;52.260;20.746;2023-12-20T08:22:02;99372.60;;;5.80
69545;BMP180;56766;52.260;20.746;2023-12-20T08:24:29;99374.00;;;5.80
69545;BMP180;56766;52.260;20.746;2023-12-20T08:26:55;99368.40;;;5.80
69545;BMP180;56766;52.260;20.746;2023-12-20T08:29:21;99368.00;;;5.80
69545;BMP180;56766;52.260;20.746;2023-12-20T08:31:53;99368.80;;;5.80
69545;BMP180;56766;52.260;20.746;2023-12-20T08:34:20;99360.40;;;5.80
69545;BMP180;56766;52.260;20.746;2023-12-20T08:36:46;99361.20;;;5.80
69545;BMP180;56766;52.260;20.746;2023-12-20T08:39:12;99364.00;;;5.80
69545;BMP180;56766;52.260;20.746;2023-12-20T08:41:38;99361.00;;;5.86
69545;BMP180;56766;52.260;20.746;2023-12-20T08:44:04;99360.40;;;5.90
69545;BMP180;56766;52.260;20.746;2023-12-20T08:46:30;99358.80;;;5.90
69545;BMP180;56766;52.260;20.746;2023-12-20T08:48:56;99359.40;;;5.90
69545;BMP180;56766;52.260;20.746;2023-12-20T08:51:22;99363.40;;;5.90
69545;BMP180;56766;52.260;20.746;2023-12-20T08:53:49;99359.80;;;5.90
69545;BMP180;56766;52.260;20.746;2023-12-20T08:56:15;99359.80;;;5.90
69545;BMP180;56766;52.260;20.746;2023-12-20T08:58:41;99357.00;;;5.90
69545;BMP180;56766;52.260;20.746;2023-12-20T09:01:07;99359.20;;;5.90
69545;BMP180;56766;52.260;20.746;2023-12-20T09:03:33;99359.20;;;5.90
69545;BMP180;56766;52.260;20.746;2023-12-20T09:05:59;99351.40;;;5.90
69545;BMP180;56766;52.260;20.746;2023-12-20T09:08:25;99351.20;;;5.90
69545;BMP180;56766;52.260;20.746;2023-12-20T09:10:51;99351.60;;;5.90
69545;BMP180;56766;52.260;20.746;2023-12-20T09:13:17;99350.80;;;5.90
69545;BMP180;56766;52.260;20.746;2023-12-20T09:15:43;99348.20;;;5.90
69545;BMP180;56766;52.260;20.746;2023-12-20T09:18:09;99344.00;;;5.90
69545;BMP180;56766;52.260;20.746;2023-12-20T09:20:35;99335.20;;;5.90
69545;BMP180;56766;52.260;20.746;2023-12-20T09:23:01;99335.20;;;5.92
69545;BMP180;56766;52.260;20.746;2023-12-20T09:25:27;99332.00;;;5.90
69545;BMP180;56766;52.260;20.746;2023-12-20T09:27:54;99334.20;;;5.94
69545;BMP180;56766;52.260;20.746;2023-12-20T09:30:20;99329.80;;;6.00
69545;BMP180;56766;52.260;20.746;2023-12-20T09:32:46;99329.00;;;6.00
69545;BMP180;56766;52.260;20.746;2023-12-20T09:35:12;99328.60;;;6.00
69545;BMP180;56766;52.260;20.746;2023-12-20T09:37:38;99328.00;;;6.00
69545;BMP180;56766;52.260;20.746;2023-12-20T09:40:12;99325.40;;;6.00
69545;BMP180;56766;52.260;20.746;2023-12-20T09:42:58;99324.40;;;6.00
69545;BMP180;56766;52.260;20.746;2023-12-20T09:45:31;99326.20;;;6.06
69545;BMP180;56766;52.260;20.746;2023-12-20T09:47:58;99323.80;;;6.10
69545;BMP180;56766;52.260;20.746;2023-12-20T09:50:25;99327.40;;;6.10
69545;BMP180;56766;52.260;20.746;2023-12-20T09:52:53;99327.20;;;6.10
69545;BMP180;56766;52.260;20.746;2023-12-20T09:55:23;99326.40;;;6.10
69545;BMP180;56766;52.260;20.746;2023-12-20T09:57:50;99323.60;;;6.10
69545;BMP180;56766;52.260;20.746;2023-12-20T10:00:17;99315.60;;;6.10
69545;BMP180;56766;52.260;20.746;2023-12-20T10:02:58;99318.60;;;6.06
69545;BMP180;56766;52.260;20.746;2023-12-20T10:05:33;99318.20;;;6.00
69545;BMP180;56766;52.260;20.746;2023-12-20T10:08:01;99309.40;;;6.02
69545;BMP180;56766;52.260;20.746;2023-12-20T10:10:27;99307.80;;;6.04
69545;BMP180;56766;52.260;20.746;2023-12-20T10:13:12;99314.00;;;6.04
69545;BMP180;56766;52.260;20.746;2023-12-20T10:15:39;99305.40;;;6.00
69545;BMP180;56766;52.260;20.746;2023-12-20T10:18:07;99303.20;;;6.00
69545;BMP180;56766;52.260;20.746;2023-12-20T10:20:33;99299.80;;;6.08
69545;BMP180;56766;52.260;20.746;2023-12-20T10:23:00;99299.40;;;6.10
69545;BMP180;56766;52.260;20.746;2023-12-20T10:25:27;99294.20;;;6.10
69545;BMP180;56766;52.260;20.746;2023-12-20T10:28:16;99291.00;;;6.10
69545;BMP180;56766;52.260;20.746;2023-12-20T10:30:47;99294.80;;;6.10
69545;BMP180;56766;52.260;20.746;2023-12-20T10:33:13;99291.00;;;6.10
69545;BMP180;56766;52.260;20.746;2023-12-20T10:35:40;99285.00;;;6.10
69545;BMP180;56766;52.260;20.746;2023-12-20T10:38:07;99287.40;;;6.10
69545;BMP180;56766;52.260;20.746;2023-12-20T10:40:35;99281.60;;;6.20
69545;BMP180;56766;52.260;20.746;2023-12-20T10:43:04;99281.00;;;6.20
69545;BMP180;56766;52.260;20.746;2023-12-20T10:45:31;99289.00;;;6.20
69545;BMP180;56766;52.260;20.746;2023-12-20T10:47:58;99289.40;;;6.20
69545;BMP180;56766;52.260;20.746;2023-12-20T10:50:28;99288.40;;;6.28
69545;BMP180;56766;52.260;20.746;2023-12-20T10:52:56;99286.40;;;6.26
69545;BMP180;56766;52.260;20.746;2023-12-20T10:55:24;99286.60;;;6.20
69545;BMP180;56766;52.260;20.746;2023-12-20T10:57:51;99280.00;;;6.20
69545;BMP180;56766;52.260;20.746;2023-12-20T11:00:20;99270.00;;;6.20
69545;BMP180;56766;52.260;20.746;2023-12-20T11:02:50;99267.80;;;6.20
69545;BMP180;56766;52.260;20.746;2023-12-20T11:08:41;99262.80;;;6.30
69545;BMP180;56766;52.260;20.746;2023-12-20T11:14:20;99255.80;;;6.40
69545;BMP180;56766;52.260;20.746;2023-12-20T11:16:46;99247.20;;;6.40
69545;BMP180;56766;52.260;20.746;2023-12-20T11:19:12;99244.00;;;6.40
69545;BMP180;56766;52.260;20.746;2023-12-20T11:21:41;99238.00;;;6.40
69545;BMP180;56766;52.260;20.746;2023-12-20T11:24:07;99240.00;;;6.40
69545;BMP180;56766;52.260;20.746;2023-12-20T11:26:33;99236.60;;;6.40
69545;BMP180;56766;52.260;20.746;2023-12-20T11:29:35;99230.40;;;6.40
69545;BMP180;56766;52.260;20.746;2023-12-20T11:32:04;99232.60;;;6.32
69545;BMP180;56766;52.260;20.746;2023-12-20T11:37:38;99226.80;;;6.30
69545;BMP180;56766;52.260;20.746;2023-12-20T11:40:15;99226.80;;;6.26
69545;BMP180;56766;52.260;20.746;2023-12-20T11:42:44;99220.20;;;6.20
69545;BMP180;56766;52.260;20.746;2023-12-20T11:45:15;99218.00;;;6.20
69545;BMP180;56766;52.260;20.746;2023-12-20T11:47:47;99210.60;;;6.20
69545;BMP180;56766;52.260;20.746;2023-12-20T11:50:13;99208.80;;;6.20
69545;BMP180;56766;52.260;20.746;2023-12-20T11:52:40;99208.40;;;6.14
69545;BMP180;56766;52.260;20.746;2023-12-20T11:55:06;99210.60;;;6.10
69545;BMP180;56766;52.260;20.746;2023-12-20T11:57:33;99206.80;;;6.10
69545;BMP180;56766;52.260;20.746;2023-12-20T12:00:00;99211.00;;;6.10
69545;BMP180;56766;52.260;20.746;2023-12-20T12:02:26;99206.00;;;6.10
69545;BMP180;56766;52.260;20.746;2023-12-20T12:04:52;99210.00;;;6.10
69545;BMP180;56766;52.260;20.746;2023-12-20T12:07:18;99209.40;;;6.04
69545;BMP180;56766;52.260;20.746;2023-12-20T12:09:45;99208.40;;;6.00
69545;BMP180;56766;52.260;20.746;2023-12-20T12:12:13;99215.60;;;6.00
69545;BMP180;56766;52.260;20.746;2023-12-20T12:14:39;99207.00;;;6.00
69545;BMP180;56766;52.260;20.746;2023-12-20T12:17:13;99202.40;;;5.90
69545;BMP180;56766;52.260;20.746;2023-12-20T12:19:41;99200.20;;;5.90
69545;BMP180;56766;52.260;20.746;2023-12-20T12:22:13;99205.00;;;5.80
69545;BMP180;56766;52.260;20.746;2023-12-20T12:24:40;99199.40;;;5.80
69545;BMP180;56766;52.260;20.746;2023-12-20T12:27:08;99195.40;;;5.70
69545;BMP180;56766;52.260;20.746;2023-12-20T12:29:36;99186.80;;;5.70
69545;BMP180;56766;52.260;20.746;2023-12-20T12:32:09;99179.20;;;5.68
69545;BMP180;56766;52.260;20.746;2023-12-20T12:34:36;99179.40;;;5.64
69545;BMP180;56766;52.260;20.746;2023-12-20T12:37:06;99182.00;;;5.70
69545;BMP180;56766;52.260;20.746;2023-12-20T12:39:34;99181.40;;;5.70
69545;BMP180;56766;52.260;20.746;2023-12-20T12:42:00;99189.20;;;5.70
69545;BMP180;56766;52.260;20.746;2023-12-20T12:44:26;99185.80;;;5.70
69545;BMP180;56766;52.260;20.746;2023-12-20T12:46:52;99186.20;;;5.70
69545;BMP180;56766;52.260;20.746;2023-12-20T12:49:20;99185.00;;;5.70
69545;BMP180;56766;52.260;20.746;2023-12-20T12:51:48;99186.20;;;5.70
69545;BMP180;56766;52.260;20.746;2023-12-20T12:54:14;99183.20;;;5.70
69545;BMP180;56766;52.260;20.746;2023-12-20T12:56:43;99178.40;;;5.70
69545;BMP180;56766;52.260;20.746;2023-12-20T12:59:10;99179.20;;;5.70
69545;BMP180;56766;52.260;20.746;2023-12-20T13:01:36;99174.20;;;5.60
69545;BMP180;56766;52.260;20.746;2023-12-20T13:04:03;99179.80;;;5.60
69545;BMP180;56766;52.260;20.746;2023-12-20T13:06:32;99172.20;;;5.60
69545;BMP180;56766;52.260;20.746;2023-12-20T13:08:59;99172.60;;;5.60
69545;BMP180;56766;52.260;20.746;2023-12-20T13:11:25;99169.60;;;5.52
69545;BMP180;56766;52.260;20.746;2023-12-20T13:13:51;99174.40;;;5.60
69545;BMP180;56766;52.260;20.746;2023-12-20T13:16:17;99171.40;;;5.52
69545;BMP180;56766;52.260;20.746;2023-12-20T13:18:43;99173.20;;;5.50
69545;BMP180;56766;52.260;20.746;2023-12-20T13:21:09;99171.40;;;5.50
69545;BMP180;56766;52.260;20.746;2023-12-20T13:23:35;99172.60;;;5.54
69545;BMP180;56766;52.260;20.746;2023-12-20T13:26:02;99172.00;;;5.56
69545;BMP180;56766;52.260;20.746;2023-12-20T13:28:29;99169.80;;;5.56
69545;BMP180;56766;52.260;20.746;2023-12-20T13:30:56;99169.40;;;5.50
69545;BMP180;56766;52.260;20.746;2023-12-20T13:33:23;99166.80;;;5.50
69545;BMP180;56766;52.260;20.746;2023-12-20T13:35:50;99166.60;;;5.50
69545;BMP180;56766;52.260;20.746;2023-12-20T13:38:17;99167.00;;;5.50
69545;BMP180;56766;52.260;20.746;2023-12-20T13:40:44;99165.80;;;5.50
69545;BMP180;56766;52.260;20.746;2023-12-20T13:43:10;99160.40;;;5.50
69545;BMP180;56766;52.260;20.746;2023-12-20T13:45:39;99159.80;;;5.50
69545;BMP180;56766;52.260;20.746;2023-12-20T13:48:06;99151.00;;;5.46
69545;BMP180;56766;52.260;20.746;2023-12-20T13:50:32;99149.20;;;5.40
69545;BMP180;56766;52.260;20.746;2023-12-20T13:52:58;99161.60;;;5.40
69545;BMP180;56766;52.260;20.746;2023-12-20T13:55:24;99161.20;;;5.40
69545;BMP180;56766;52.260;20.746;2023-12-20T13:57:53;99159.00;;;5.30
69545;BMP180;56766;52.260;20.746;2023-12-20T14:00:19;99158.60;;;5.30
69545;BMP180;56766;52.260;20.746;2023-12-20T14:02:45;99153.20;;;5.30
69545;BMP180;56766;52.260;20.746;2023-12-20T14:05:12;99156.20;;;5.30
69545;BMP180;56766;52.260;20.746;2023-12-20T14:07:42;99160.80;;;5.28
69545;BMP180;56766;52.260;20.746;2023-12-20T14:10:15;99163.20;;;5.20
69545;BMP180;56766;52.260;20.746;2023-12-20T14:12:41;99163.60;;;5.20
69545;BMP180;56766;52.260;20.746;2023-12-20T14:15:08;99161.40;;;5.10
69545;BMP180;56766;52.260;20.746;2023-12-20T14:17:38;99170.80;;;5.10